HRS weather

Cantarell II Platform Helipad
Villahermosa, Tabasco, Mexico

Public forecast

Using degrees Celsius for public forecast. Weather courtesy of forecast.io.

METAR (pilot weather report)

Report is more than 2 hours old.

Closest report is Carlos Rovirosa Pérez International Airport, 50.3 nm (93.1 km) SE. Retrieved 2019/06/20 02:44 UTC (3 hours ago):

MMVA 200244Z 00000KT 7SM SKC 28/26 A2984 RMK SLP102 52024 957

TAF (pilot weather forecast)

Forecast is more than 6 hours old.

Closest forecast is Carlos Rovirosa Pérez International Airport, 50.3 nm (93.1 km) SE. Retrieved 2019/06/19 18:53 UTC (11 hours ago):

TAF MMVA 191646Z 1918/2018 12012KT P6SM SKC TEMPO 2000/2004 SCT015CB FM200600 00000KT 6SM HZ SKC TEMPO 2012/2016 3SM BR